createdAt,value
2023-05-01T00:00:05.321Z,0.7
2023-05-01T00:01:03.181Z,0.4
2023-05-01T00:02:02.953Z,0.3
2023-05-01T00:03:03.809Z,0.5
2023-05-01T00:04:03.824Z,0.6
2023-05-01T00:05:03.765Z,0.7
2023-05-01T00:06:03.365Z,0.7
2023-05-01T00:07:03.129Z,0.3
2023-05-01T00:08:03.762Z,0.7
2023-05-01T00:09:03.484Z,0.7
2023-05-01T00:10:03.520Z,0.7
2023-05-01T00:11:03.437Z,0.6
2023-05-01T00:12:03.086Z,0.7
2023-05-01T00:13:03.718Z,0.2
2023-05-01T00:14:03.524Z,0.5
2023-05-01T00:15:03.581Z,0.2
2023-05-01T00:16:09.736Z,0.6
2023-05-01T00:17:02.975Z,0.7
2023-05-01T00:18:03.707Z,0.3
2023-05-01T00:19:03.462Z,0.3
2023-05-01T00:20:03.577Z,0.6
2023-05-01T00:21:03.221Z,0.8
2023-05-01T00:22:02.930Z,0.9
2023-05-01T00:23:03.688Z,1.0
2023-05-01T00:24:03.677Z,0.4
2023-05-01T00:25:03.563Z,0.5
2023-05-01T00:26:03.263Z,0.2
2023-05-01T00:27:02.981Z,0.4
2023-05-01T00:28:04.008Z,0.5
2023-05-01T00:29:03.423Z,0.3
2023-05-01T00:30:03.477Z,0.4
2023-05-01T00:31:03.112Z,0.6
2023-05-01T00:32:03.999Z,0.4
2023-05-01T00:33:03.754Z,0.0
2023-05-01T00:34:03.470Z,0.4
2023-05-01T00:35:03.439Z,0.9
2023-05-01T00:36:03.274Z,0.9
2023-05-01T00:37:02.942Z,0.8
2023-05-01T00:38:03.601Z,0.8
2023-05-01T00:39:03.464Z,0.8
2023-05-01T00:40:03.434Z,1.1
2023-05-01T00:41:03.071Z,0.5
2023-05-01T00:42:03.799Z,0.5
2023-05-01T00:43:03.619Z,0.5
2023-05-01T00:44:03.598Z,0.9
2023-05-01T00:45:03.531Z,0.9
2023-05-01T00:46:03.189Z,0.6
2023-05-01T00:47:03.761Z,0.3
2023-05-01T00:48:03.579Z,0.4
2023-05-01T00:49:03.572Z,0.6
2023-05-01T00:50:04.179Z,0.5
2023-05-01T00:51:04.380Z,0.4
2023-05-01T00:52:03.783Z,0.5
2023-05-01T00:53:03.597Z,0.9
2023-05-01T00:54:04.755Z,0.7
2023-05-01T00:55:03.510Z,0.4
2023-05-01T00:56:03.168Z,0.3
2023-05-01T00:57:04.137Z,0.1
2023-05-01T00:58:03.781Z,0.6
2023-05-01T00:59:03.425Z,0.5
2023-05-01T01:00:03.901Z,0.4
2023-05-01T01:01:03.341Z,0.9
2023-05-01T01:02:03.735Z,0.9
2023-05-01T01:03:04.028Z,0.6
2023-05-01T01:04:03.515Z,0.9
2023-05-01T01:05:03.327Z,0.5
2023-05-01T01:06:06.251Z,0.7
2023-05-01T01:07:11.525Z,0.5
2023-05-01T01:08:17.005Z,0.6
2023-05-01T01:09:16.996Z,0.8
2023-05-01T01:10:11.058Z,0.6
2023-05-01T01:11:07.830Z,0.7
2023-05-01T01:12:08.590Z,0.3
2023-05-01T01:13:06.941Z,0.7
2023-05-01T01:14:08.202Z,0.3
2023-05-01T01:15:20.751Z,0.1
2023-05-01T01:16:07.999Z,1.1
2023-05-01T01:17:21.910Z,0.6
2023-05-01T01:18:08.163Z,0.6
2023-05-01T01:19:11.008Z,0.3
2023-05-01T01:20:08.025Z,0.3
2023-05-01T01:21:10.954Z,0.8
2023-05-01T01:22:14.479Z,0.9
2023-05-01T01:23:21.454Z,0.9
2023-05-01T01:24:20.009Z,0.5
2023-05-01T01:25:13.547Z,0.6
2023-05-01T01:26:16.493Z,0.6
2023-05-01T01:27:21.452Z,0.5
2023-05-01T01:28:20.041Z,0.4
2023-05-01T01:29:26.012Z,0.6
2023-05-01T01:30:08.046Z,0.7
2023-05-01T01:31:11.566Z,0.5
2023-05-01T01:32:21.452Z,0.8
2023-05-01T01:33:08.312Z,0.6
2023-05-01T01:34:07.203Z,0.4
2023-05-01T01:35:04.646Z,0.8
2023-05-01T01:36:08.747Z,0.5
2023-05-01T01:37:10.480Z,0.5
2023-05-01T01:38:08.642Z,0.4
2023-05-01T01:39:10.984Z,0.2
2023-05-01T01:40:22.005Z,0.5
2023-05-01T01:41:09.042Z,0.8
2023-05-01T01:42:07.888Z,0.7
2023-05-01T01:43:07.079Z,0.6
2023-05-01T01:44:14.012Z,0.4
2023-05-01T01:45:04.835Z,0.7
2023-05-01T01:46:05.763Z,0.6
2023-05-01T01:47:05.048Z,0.8
2023-05-01T01:48:04.665Z,0.0
2023-05-01T01:49:05.673Z,0.6
2023-05-01T01:50:04.582Z,1.0
2023-05-01T01:51:07.296Z,0.7
2023-05-01T01:52:04.452Z,0.4
2023-05-01T01:53:04.694Z,0.7
2023-05-01T01:54:03.546Z,0.4
2023-05-01T01:55:10.216Z,0.1
2023-05-01T01:56:05.882Z,0.5
2023-05-01T01:57:04.980Z,0.5
2023-05-01T01:58:04.367Z,0.6
2023-05-01T01:59:04.241Z,0.8
2023-05-01T02:00:04.282Z,0.8
2023-05-01T02:01:04.552Z,0.5
2023-05-01T02:02:04.228Z,0.1
2023-05-01T02:03:03.693Z,0.8
2023-05-01T02:04:03.817Z,0.8
2023-05-01T02:05:04.566Z,0.9
2023-05-01T02:06:04.171Z,0.4
2023-05-01T02:07:03.646Z,0.6
2023-05-01T02:08:03.928Z,0.4
2023-05-01T02:09:03.516Z,0.9
2023-05-01T02:10:04.018Z,0.2
2023-05-01T02:11:04.146Z,0.6
2023-05-01T02:12:05.648Z,0.7
2023-05-01T02:13:03.471Z,0.8
2023-05-01T02:14:03.421Z,0.3
2023-05-01T02:15:05.347Z,0.5
2023-05-01T02:16:04.216Z,0.6
2023-05-01T02:17:03.709Z,0.5
2023-05-01T02:18:04.133Z,0.6
2023-05-01T02:19:04.179Z,0.6
2023-05-01T02:20:04.219Z,0.3
2023-05-01T02:21:03.818Z,0.4
2023-05-01T02:22:04.251Z,0.1
2023-05-01T02:23:04.655Z,0.3
2023-05-01T02:24:04.045Z,0.6
2023-05-01T02:25:04.542Z,0.4
2023-05-01T02:26:03.534Z,0.4
2023-05-01T02:27:06.470Z,0.8
2023-05-01T02:28:05.845Z,0.2
2023-05-01T02:29:03.759Z,0.8
2023-05-01T02:30:03.910Z,0.3
2023-05-01T02:31:03.451Z,0.1
2023-05-01T02:32:03.324Z,0.6
2023-05-01T02:33:03.162Z,0.4
2023-05-01T02:34:03.741Z,0.6
2023-05-01T02:35:03.763Z,0.3
2023-05-01T02:36:03.448Z,0.3
2023-05-01T02:37:05.360Z,0.4
2023-05-01T02:38:02.957Z,0.6
2023-05-01T02:39:03.892Z,0.2
2023-05-01T02:40:03.846Z,0.6
2023-05-01T02:41:03.323Z,0.7
2023-05-01T02:42:04.257Z,0.4
2023-05-01T02:43:04.101Z,0.4
2023-05-01T02:44:04.056Z,0.6
2023-05-01T02:45:05.642Z,0.6
2023-05-01T02:46:03.793Z,0.3
2023-05-01T02:47:04.093Z,0.7
2023-05-01T02:48:05.015Z,0.6
2023-05-01T02:49:04.944Z,0.5
2023-05-01T02:50:04.692Z,0.6
2023-05-01T02:51:03.989Z,0.5
2023-05-01T02:52:04.009Z,0.7
2023-05-01T02:53:03.778Z,0.4
2023-05-01T02:54:03.918Z,0.6
2023-05-01T02:55:03.723Z,0.6
2023-05-01T02:56:03.938Z,0.5
2023-05-01T02:57:03.672Z,0.3
2023-05-01T02:58:03.757Z,0.3
2023-05-01T02:59:03.542Z,0.4
2023-05-01T03:00:03.615Z,0.5
2023-05-01T03:01:03.290Z,0.7
2023-05-01T03:02:03.064Z,0.5
2023-05-01T03:03:03.708Z,0.3
2023-05-01T03:04:03.628Z,0.2
2023-05-01T03:05:03.393Z,0.3
2023-05-01T03:06:03.256Z,0.4
2023-05-01T03:07:02.963Z,0.2
2023-05-01T03:08:03.393Z,0.7
2023-05-01T03:09:03.006Z,0.3
2023-05-01T03:10:04.368Z,0.6
2023-05-01T03:11:04.221Z,0.8
2023-05-01T03:12:03.489Z,1.0
2023-05-01T03:13:03.133Z,0.2
2023-05-01T03:14:02.970Z,0.4
2023-05-01T03:15:03.911Z,0.6
2023-05-01T03:16:03.741Z,0.6
2023-05-01T03:17:03.361Z,0.6
2023-05-01T03:18:03.594Z,0.3
2023-05-01T03:19:02.949Z,0.3
2023-05-01T03:20:04.014Z,0.8
2023-05-01T03:21:03.660Z,0.4
2023-05-01T03:22:03.453Z,0.5
2023-05-01T03:23:03.226Z,0.5
2023-05-01T03:24:03.052Z,0.1
2023-05-01T03:25:03.803Z,0.3
2023-05-01T03:26:03.440Z,0.6
2023-05-01T03:27:03.242Z,0.3
2023-05-01T03:28:03.119Z,0.3
2023-05-01T03:29:03.842Z,0.3
2023-05-01T03:30:03.925Z,0.5
2023-05-01T03:31:03.495Z,0.4
2023-05-01T03:32:03.545Z,0.9
2023-05-01T03:33:03.179Z,0.4
2023-05-01T03:34:03.762Z,0.6
2023-05-01T03:35:03.829Z,0.4
2023-05-01T03:36:03.932Z,1.0
2023-05-01T03:37:03.159Z,0.5
2023-05-01T03:38:02.999Z,0.4
2023-05-01T03:39:03.854Z,0.8
2023-05-01T03:40:03.847Z,0.6
2023-05-01T03:41:03.380Z,1.0
2023-05-01T03:42:03.239Z,0.7
2023-05-01T03:43:03.049Z,0.4
2023-05-01T03:44:03.814Z,0.5
2023-05-01T03:45:03.696Z,0.7
2023-05-01T03:46:03.326Z,0.5
2023-05-01T03:47:03.093Z,0.6
2023-05-01T03:48:03.211Z,0.6
2023-05-01T03:49:03.652Z,0.7
2023-05-01T03:50:03.698Z,0.4
2023-05-01T03:51:03.614Z,0.4
2023-05-01T03:52:03.110Z,0.6
2023-05-01T03:53:04.338Z,0.6
2023-05-01T03:54:03.606Z,0.2
2023-05-01T03:55:03.793Z,0.9
2023-05-01T03:56:03.454Z,0.3
2023-05-01T03:57:03.364Z,0.0
2023-05-01T03:58:03.834Z,0.6
2023-05-01T03:59:03.636Z,0.3
2023-05-01T04:00:03.732Z,0.2
2023-05-01T04:01:03.322Z,0.5
2023-05-01T04:02:03.106Z,0.7
2023-05-01T04:03:04.211Z,0.4
2023-05-01T04:04:03.849Z,0.2
2023-05-01T04:05:03.580Z,0.3
2023-05-01T04:06:03.328Z,0.3
2023-05-01T04:07:03.176Z,0.5
2023-05-01T04:08:03.919Z,0.6
2023-05-01T04:09:03.542Z,0.9
2023-05-01T04:10:03.482Z,0.6
2023-05-01T04:11:03.174Z,0.3
2023-05-01T04:12:03.109Z,0.5
2023-05-01T04:13:03.652Z,0.5
2023-05-01T04:14:03.485Z,0.5
2023-05-01T04:15:03.520Z,0.1
2023-05-01T04:16:03.234Z,0.6
2023-05-01T04:17:03.834Z,0.3
2023-05-01T04:18:03.683Z,0.5
2023-05-01T04:19:03.394Z,0.1
2023-05-01T04:20:03.733Z,0.5
2023-05-01T04:21:03.144Z,0.6
2023-05-01T04:22:03.764Z,0.1
2023-05-01T04:23:03.529Z,0.6
2023-05-01T04:24:03.554Z,0.7
2023-05-01T04:25:03.367Z,0.7
2023-05-01T04:26:03.196Z,0.8
2023-05-01T04:27:03.708Z,0.8
2023-05-01T04:28:03.641Z,0.8
2023-05-01T04:29:03.448Z,0.4
2023-05-01T04:30:03.332Z,0.2
2023-05-01T04:31:03.087Z,0.4
2023-05-01T04:32:03.886Z,0.6
2023-05-01T04:33:03.538Z,0.0
2023-05-01T04:34:03.246Z,0.3
2023-05-01T04:35:04.226Z,0.4
2023-05-01T04:36:03.896Z,0.0
2023-05-01T04:37:03.602Z,0.0
2023-05-01T04:38:03.490Z,0.3
2023-05-01T04:39:03.296Z,0.4
2023-05-01T04:40:03.353Z,0.4
2023-05-01T04:41:06.729Z,1.0
2023-05-01T04:42:03.548Z,0.7
2023-05-01T04:43:03.376Z,0.3
2023-05-01T04:44:03.214Z,0.6
2023-05-01T04:45:03.225Z,0.5
2023-05-01T04:46:03.836Z,0.2
2023-05-01T04:47:03.754Z,0.0
2023-05-01T04:48:03.428Z,0.6
2023-05-01T04:49:03.186Z,0.4
2023-05-01T04:50:03.128Z,0.4
2023-05-01T04:51:03.696Z,0.3
2023-05-01T04:52:03.602Z,0.2
2023-05-01T04:53:03.286Z,0.4
2023-05-01T04:54:03.068Z,0.0
2023-05-01T04:55:04.087Z,0.4
2023-05-01T04:56:03.849Z,0.4
2023-05-01T04:57:03.492Z,0.8
2023-05-01T04:58:03.311Z,0.5
2023-05-01T04:59:03.104Z,0.6
2023-05-01T05:00:04.300Z,0.6
2023-05-01T05:01:03.650Z,0.4
2023-05-01T05:02:03.748Z,0.5
2023-05-01T05:03:03.455Z,0.4
2023-05-01T05:04:03.288Z,0.6
2023-05-01T05:05:03.922Z,0.6
2023-05-01T05:06:03.754Z,0.4
2023-05-01T05:07:03.371Z,0.1
2023-05-01T05:08:03.316Z,0.2
2023-05-01T05:09:03.011Z,0.2
2023-05-01T05:10:03.911Z,0.0
2023-05-01T05:11:03.501Z,0.5
2023-05-01T05:12:03.450Z,0.9
2023-05-01T05:13:03.094Z,0.2
2023-05-01T05:14:02.949Z,0.9
2023-05-01T05:15:03.896Z,0.6
2023-05-01T05:16:03.793Z,0.4
2023-05-01T05:17:03.336Z,0.6
2023-05-01T05:18:03.217Z,0.3
2023-05-01T05:19:02.990Z,0.2
2023-05-01T05:20:03.955Z,0.8
2023-05-01T05:21:03.735Z,0.3
2023-05-01T05:22:03.250Z,0.1
2023-05-01T05:23:03.076Z,0.1
2023-05-01T05:24:03.925Z,0.3
2023-05-01T05:25:04.066Z,0.6
2023-05-01T05:26:03.501Z,1.1
2023-05-01T05:27:03.368Z,0.7
2023-05-01T05:28:03.221Z,0.3
2023-05-01T05:29:03.796Z,0.5
2023-05-01T05:30:04.495Z,0.4
2023-05-01T05:31:03.445Z,0.5
2023-05-01T05:32:03.256Z,0.4
2023-05-01T05:33:03.138Z,0.0
2023-05-01T05:34:03.784Z,0.9
2023-05-01T05:35:03.882Z,0.7
2023-05-01T05:36:03.491Z,0.6
2023-05-01T05:37:03.189Z,0.6
2023-05-01T05:38:02.977Z,0.2
2023-05-01T05:39:03.725Z,0.3
2023-05-01T05:40:03.781Z,0.4
2023-05-01T05:41:03.508Z,0.3
2023-05-01T05:42:03.131Z,0.2
2023-05-01T05:43:02.942Z,0.5
2023-05-01T05:44:03.670Z,0.5
2023-05-01T05:45:03.988Z,0.4
2023-05-01T05:46:03.431Z,0.2
2023-05-01T05:47:03.098Z,0.5
2023-05-01T05:48:03.277Z,0.3
2023-05-01T05:49:03.566Z,0.6
2023-05-01T05:50:03.709Z,0.0
2023-05-01T05:51:03.393Z,0.1
2023-05-01T05:52:03.144Z,0.0
2023-05-01T05:53:03.790Z,0.3
2023-05-01T05:54:03.569Z,0.3
2023-05-01T05:55:03.722Z,0.0
2023-05-01T05:56:03.285Z,0.0
2023-05-01T05:57:03.048Z,0.2
2023-05-01T05:58:03.705Z,0.1
2023-05-01T05:59:03.586Z,0.4
2023-05-01T06:00:04.450Z,0.3
2023-05-01T06:01:03.148Z,0.3
2023-05-01T06:02:02.999Z,0.1
2023-05-01T06:03:03.913Z,0.4
2023-05-01T06:04:03.547Z,0.5
2023-05-01T06:05:03.650Z,0.5
2023-05-01T06:06:03.981Z,0.5
2023-05-01T06:07:04.056Z,0.5
2023-05-01T06:08:03.724Z,0.4
2023-05-01T06:09:03.404Z,0.3
2023-05-01T06:10:03.306Z,0.4
2023-05-01T06:11:03.058Z,0.7
2023-05-01T06:12:03.999Z,0.4
2023-05-01T06:13:12.805Z,0.4
2023-05-01T06:14:03.331Z,0.1
2023-05-01T06:15:03.519Z,0.2
2023-05-01T06:16:03.175Z,0.5
2023-05-01T06:17:04.392Z,0.4
2023-05-01T06:18:03.638Z,0.5
2023-05-01T06:19:03.382Z,0.4
2023-05-01T06:20:03.515Z,0.0
2023-05-01T06:21:03.857Z,0.3
2023-05-01T06:22:03.713Z,0.5
2023-05-01T06:23:03.552Z,0.5
2023-05-01T06:24:03.514Z,0.3
2023-05-01T06:25:03.143Z,0.3
2023-05-01T06:26:03.818Z,0.7
2023-05-01T06:27:03.533Z,0.3
2023-05-01T06:28:03.511Z,0.4
2023-05-01T06:29:03.154Z,0.5
2023-05-01T06:30:03.314Z,0.9
2023-05-01T06:31:03.860Z,0.6
2023-05-01T06:32:03.711Z,0.1
2023-05-01T06:33:03.458Z,0.6
2023-05-01T06:34:03.170Z,0.3
2023-05-01T06:35:03.133Z,0.1
2023-05-01T06:36:03.932Z,0.1
2023-05-01T06:37:03.520Z,0.5
2023-05-01T06:38:03.277Z,0.4
2023-05-01T06:39:03.305Z,0.4
2023-05-01T06:40:03.779Z,0.7
2023-05-01T06:41:04.012Z,0.3
2023-05-01T06:42:03.437Z,0.4
2023-05-01T06:43:03.622Z,0.1
2023-05-01T06:44:03.295Z,0.5
2023-05-01T06:45:04.700Z,0.4
2023-05-01T06:46:03.768Z,0.1
2023-05-01T06:47:03.428Z,0.3
2023-05-01T06:48:03.419Z,0.5
2023-05-01T06:49:03.017Z,0.6
2023-05-01T06:50:05.490Z,0.2
2023-05-01T06:51:03.605Z,0.3
2023-05-01T06:52:03.808Z,0.5
2023-05-01T06:53:03.265Z,0.5
2023-05-01T06:54:03.086Z,0.6
2023-05-01T06:55:03.770Z,0.6
2023-05-01T06:56:03.730Z,0.3
2023-05-01T06:57:03.742Z,0.5
2023-05-01T06:58:12.430Z,0.4
2023-05-01T06:59:03.755Z,0.4
2023-05-01T07:00:04.080Z,0.3
2023-05-01T07:01:03.559Z,0.3
2023-05-01T07:02:03.239Z,0.1
2023-05-01T07:03:03.088Z,0.5
2023-05-01T07:04:03.811Z,0.5
2023-05-01T07:05:03.743Z,0.6
2023-05-01T07:06:03.520Z,0.3
2023-05-01T07:07:03.193Z,0.3
2023-05-01T07:08:03.993Z,0.4
2023-05-01T07:09:04.120Z,0.2
2023-05-01T07:10:03.713Z,0.4
2023-05-01T07:11:03.801Z,1.0
2023-05-01T07:12:04.360Z,0.6
2023-05-01T07:13:03.289Z,0.7
2023-05-01T07:14:03.162Z,0.3
2023-05-01T07:15:04.067Z,0.1
2023-05-01T07:16:03.745Z,0.6
2023-05-01T07:17:03.323Z,0.4
2023-05-01T07:18:03.663Z,0.6
2023-05-01T07:19:02.985Z,0.1
2023-05-01T07:20:04.008Z,0.3
2023-05-01T07:21:04.178Z,0.0
2023-05-01T07:22:03.354Z,0.6
2023-05-01T07:23:04.729Z,0.4
2023-05-01T07:24:03.073Z,0.6
2023-05-01T07:25:03.865Z,2.8
2023-05-01T07:26:03.518Z,4.0
2023-05-01T07:27:03.338Z,3.1
2023-05-01T07:28:03.309Z,2.4
2023-05-01T07:29:03.881Z,2.0
2023-05-01T07:30:03.879Z,1.3
2023-05-01T07:31:03.558Z,1.0
2023-05-01T07:32:03.378Z,0.3
2023-05-01T07:33:03.068Z,0.5
2023-05-01T07:34:03.733Z,0.3
2023-05-01T07:35:03.700Z,0.6
2023-05-01T07:36:03.539Z,0.7
2023-05-01T07:37:03.100Z,0.8
2023-05-01T07:38:03.904Z,0.9
2023-05-01T07:39:03.819Z,0.5
2023-05-01T07:40:03.688Z,0.8
2023-05-01T07:41:03.244Z,0.8
2023-05-01T07:42:03.124Z,0.7
2023-05-01T07:43:03.735Z,1.0
2023-05-01T07:44:03.516Z,0.4
2023-05-01T07:45:03.569Z,0.3
2023-05-01T07:46:03.202Z,0.4
2023-05-01T07:47:03.216Z,0.7
2023-05-01T07:48:04.115Z,0.2
2023-05-01T07:49:03.412Z,0.8
2023-05-01T07:50:03.521Z,0.3
2023-05-01T07:51:03.285Z,0.4
2023-05-01T07:52:03.984Z,0.4
2023-05-01T07:53:03.547Z,0.2
2023-05-01T07:54:03.400Z,0.5
2023-05-01T07:55:03.333Z,0.7
2023-05-01T07:56:09.128Z,0.9
2023-05-01T07:57:05.519Z,1.0
2023-05-01T07:58:03.525Z,0.8
2023-05-01T07:59:03.332Z,0.5
2023-05-01T08:00:03.537Z,0.9
2023-05-01T08:01:04.911Z,0.9
2023-05-01T08:02:03.635Z,1.0
2023-05-01T08:03:03.484Z,0.7
2023-05-01T08:04:03.373Z,0.4
2023-05-01T08:05:03.240Z,1.0
2023-05-01T08:06:04.084Z,0.8
2023-05-01T08:07:03.586Z,0.3
2023-05-01T08:08:03.467Z,0.2
2023-05-01T08:09:03.156Z,0.2
2023-05-01T08:10:03.450Z,0.7
2023-05-01T08:11:03.662Z,0.7
2023-05-01T08:12:03.455Z,0.6
2023-05-01T08:13:03.366Z,0.8
2023-05-01T08:14:03.064Z,0.4
2023-05-01T08:15:04.129Z,0.9
2023-05-01T08:16:03.904Z,1.0
2023-05-01T08:17:03.342Z,0.1
2023-05-01T08:18:03.213Z,0.3
2023-05-01T08:19:03.065Z,0.3
2023-05-01T08:20:04.041Z,0.9
2023-05-01T08:21:03.550Z,0.7
2023-05-01T08:22:03.313Z,0.9
2023-05-01T08:23:03.133Z,0.6
2023-05-01T08:24:04.065Z,0.8
2023-05-01T08:25:04.395Z,0.5
2023-05-01T08:26:03.518Z,0.5
2023-05-01T08:27:03.325Z,0.5
2023-05-01T08:28:03.165Z,0.6
2023-05-01T08:29:03.692Z,0.7
2023-05-01T08:30:03.972Z,1.0
2023-05-01T08:31:03.502Z,0.2
2023-05-01T08:32:03.163Z,0.6
2023-05-01T08:33:02.934Z,0.7
2023-05-01T08:34:03.890Z,0.9
2023-05-01T08:35:03.719Z,0.5
2023-05-01T08:36:03.466Z,0.3
2023-05-01T08:37:03.148Z,0.7
2023-05-01T08:38:02.936Z,0.2
2023-05-01T08:39:03.636Z,0.9
2023-05-01T08:40:03.716Z,0.7
2023-05-01T08:41:03.308Z,0.5
2023-05-01T08:42:03.541Z,0.4
2023-05-01T08:43:04.092Z,0.9
2023-05-01T08:44:03.850Z,0.6
2023-05-01T08:45:08.350Z,0.7
2023-05-01T08:46:06.969Z,0.4
2023-05-01T08:47:10.703Z,0.5
2023-05-01T08:48:06.704Z,1.0
2023-05-01T08:49:04.002Z,0.5
2023-05-01T08:50:03.752Z,0.8
2023-05-01T08:51:03.212Z,0.7
2023-05-01T08:52:05.358Z,0.6
2023-05-01T08:53:04.560Z,0.6
2023-05-01T08:54:04.827Z,0.6
2023-05-01T08:55:03.665Z,0.0
2023-05-01T08:56:05.206Z,0.2
2023-05-01T08:57:05.916Z,0.6
2023-05-01T08:58:05.307Z,0.7
2023-05-01T08:59:03.852Z,0.6
2023-05-01T09:00:03.808Z,0.5
2023-05-01T09:01:04.177Z,0.4
2023-05-01T09:02:05.593Z,0.4
2023-05-01T09:03:04.357Z,0.2
2023-05-01T09:04:04.093Z,0.1
2023-05-01T09:05:05.122Z,0.2
2023-05-01T09:06:03.981Z,0.9
2023-05-01T09:07:03.686Z,0.7
2023-05-01T09:08:03.364Z,0.8
2023-05-01T09:09:03.264Z,0.8
2023-05-01T09:10:03.298Z,0.8
2023-05-01T09:11:03.663Z,0.9
2023-05-01T09:12:17.134Z,0.9
2023-05-01T09:13:03.609Z,0.3
2023-05-01T09:14:03.201Z,0.4
2023-05-01T09:15:04.214Z,0.3
2023-05-01T09:16:04.289Z,0.4
2023-05-01T09:17:03.577Z,0.7
2023-05-01T09:18:03.958Z,0.6
2023-05-01T09:19:03.097Z,0.5
2023-05-01T09:20:04.137Z,0.2
2023-05-01T09:21:03.523Z,0.2
2023-05-01T09:22:03.431Z,1.0
2023-05-01T09:23:03.201Z,0.7
2023-05-01T09:24:03.124Z,0.5
2023-05-01T09:25:03.851Z,0.7
2023-05-01T09:26:03.888Z,0.6
2023-05-01T09:27:03.268Z,0.9
2023-05-01T09:28:05.804Z,0.5
2023-05-01T09:29:03.824Z,0.6
2023-05-01T09:30:04.347Z,1.2
2023-05-01T09:31:08.370Z,0.7
2023-05-01T09:32:13.204Z,0.3
2023-05-01T09:33:03.785Z,0.3
2023-05-01T09:34:04.342Z,0.5
2023-05-01T09:35:12.917Z,1.3
2023-05-01T09:36:03.505Z,0.7
2023-05-01T09:37:03.117Z,2.0
2023-05-01T09:38:02.965Z,2.9
2023-05-01T09:39:03.650Z,2.7
2023-05-01T09:40:04.620Z,2.0
2023-05-01T09:41:03.849Z,2.4
2023-05-01T09:42:03.140Z,2.9
2023-05-01T09:43:03.797Z,1.9
2023-05-01T09:44:03.595Z,1.1
2023-05-01T09:45:08.526Z,0.9
2023-05-01T09:46:05.106Z,1.4
2023-05-01T09:47:03.094Z,3.2
2023-05-01T09:48:07.523Z,3.7
2023-05-01T09:49:03.593Z,4.3
2023-05-01T09:50:03.631Z,3.0
2023-05-01T09:51:10.604Z,2.9
2023-05-01T09:52:11.684Z,2.2
2023-05-01T09:53:04.261Z,2.1
2023-05-01T09:54:03.892Z,2.2
2023-05-01T09:55:16.290Z,2.0
2023-05-01T09:56:03.296Z,2.0
2023-05-01T09:57:03.806Z,2.2
2023-05-01T09:58:03.684Z,2.3
2023-05-01T09:59:14.139Z,2.1
2023-05-01T10:00:03.806Z,1.5
2023-05-01T10:01:03.229Z,1.8
2023-05-01T10:02:04.067Z,1.4
2023-05-01T10:03:08.775Z,1.4
2023-05-01T10:04:03.570Z,2.0
2023-05-01T10:05:03.546Z,1.5
2023-05-01T10:06:03.324Z,1.6
2023-05-01T10:07:13.131Z,1.5
2023-05-01T10:08:03.841Z,1.8
2023-05-01T10:09:04.286Z,1.4
2023-05-01T10:10:15.516Z,1.8
2023-05-01T10:11:03.216Z,1.8
2023-05-01T10:12:03.758Z,2.0
2023-05-01T10:13:11.092Z,2.5
2023-05-01T10:14:07.127Z,2.0
2023-05-01T10:15:13.719Z,1.4
2023-05-01T10:16:03.066Z,2.2
2023-05-01T10:17:08.733Z,1.5
2023-05-01T10:18:03.876Z,1.9
2023-05-01T10:19:04.527Z,2.1
2023-05-01T10:20:03.464Z,1.8
2023-05-01T10:21:03.304Z,1.7
2023-05-01T10:22:03.623Z,1.7
2023-05-01T10:23:03.406Z,1.8
2023-05-01T10:24:03.370Z,1.4
2023-05-01T10:25:03.763Z,2.0
2023-05-01T10:26:05.295Z,1.4
2023-05-01T10:27:05.415Z,1.6
2023-05-01T10:28:04.139Z,1.5
2023-05-01T10:29:03.307Z,1.2
2023-05-01T10:30:03.456Z,2.4
2023-05-01T10:31:04.514Z,1.7
2023-05-01T10:32:04.065Z,1.4
2023-05-01T10:33:04.540Z,1.0
2023-05-01T10:34:03.448Z,1.6
2023-05-01T10:35:07.928Z,1.6
2023-05-01T10:36:05.246Z,1.6
2023-05-01T10:37:05.869Z,1.6
2023-05-01T10:38:04.659Z,1.8
2023-05-01T10:39:03.255Z,1.8
2023-05-01T10:40:21.044Z,1.7
2023-05-01T10:41:03.807Z,2.0
2023-05-01T10:42:09.742Z,1.5
2023-05-01T10:43:12.779Z,1.9
2023-05-01T10:44:08.023Z,1.3
2023-05-01T10:45:21.023Z,1.7
2023-05-01T10:46:14.202Z,1.4
2023-05-01T10:47:17.150Z,1.6
2023-05-01T10:48:03.396Z,1.2
2023-05-01T10:49:03.191Z,1.2
2023-05-01T10:50:07.645Z,1.4
2023-05-01T10:51:06.885Z,2.1
2023-05-01T10:52:03.422Z,2.8
2023-05-01T10:53:16.647Z,3.1
2023-05-01T10:54:16.667Z,2.7
2023-05-01T10:55:22.154Z,2.4
2023-05-01T10:56:03.998Z,2.4
2023-05-01T10:57:05.022Z,1.9
2023-05-01T10:58:03.216Z,1.9
2023-05-01T10:59:04.112Z,2.1
2023-05-01T11:00:08.375Z,2.0
2023-05-01T11:01:21.088Z,2.4
2023-05-01T11:02:08.669Z,2.4
2023-05-01T11:03:26.126Z,2.0
2023-05-01T11:04:04.502Z,1.9
2023-05-01T11:05:03.420Z,2.2
2023-05-01T11:06:05.931Z,2.2
2023-05-01T11:07:08.854Z,2.0
2023-05-01T11:08:21.587Z,2.1
2023-05-01T11:09:08.339Z,2.4
2023-05-01T11:10:08.152Z,1.8
2023-05-01T11:11:07.891Z,2.3
2023-05-01T11:12:04.160Z,1.9
2023-05-01T11:13:03.456Z,1.7
2023-05-01T11:14:06.766Z,1.9
2023-05-01T11:15:03.728Z,2.2
2023-05-01T11:16:07.827Z,1.9
2023-05-01T11:17:03.626Z,2.0
2023-05-01T11:18:03.637Z,1.7
2023-05-01T11:19:26.889Z,2.5
2023-05-01T11:20:03.398Z,2.1
2023-05-01T11:21:03.123Z,2.0
2023-05-01T11:22:08.496Z,1.8
2023-05-01T11:23:03.474Z,2.2
2023-05-01T11:24:03.698Z,1.4
2023-05-01T11:25:03.981Z,1.8
2023-05-01T11:26:03.801Z,1.9
2023-05-01T11:27:03.673Z,2.0
2023-05-01T11:28:03.419Z,2.2
2023-05-01T11:29:04.014Z,1.6
2023-05-01T11:30:03.264Z,1.4
2023-05-01T11:31:03.904Z,1.4
2023-05-01T11:32:03.779Z,1.1
2023-05-01T11:33:03.427Z,1.8
2023-05-01T11:34:03.382Z,1.7
2023-05-01T11:35:03.311Z,2.1
2023-05-01T11:36:04.048Z,1.1
2023-05-01T11:37:03.578Z,2.6
2023-05-01T11:38:03.433Z,1.5
2023-05-01T11:39:03.276Z,1.9
2023-05-01T11:40:03.298Z,2.4
2023-05-01T11:41:03.729Z,1.9
2023-05-01T11:42:07.277Z,1.9
2023-05-01T11:43:04.184Z,2.1
2023-05-01T11:44:03.197Z,1.8
2023-05-01T11:45:04.329Z,1.5
2023-05-01T11:46:03.346Z,2.2
2023-05-01T11:47:03.132Z,2.3
2023-05-01T11:48:04.799Z,1.0
2023-05-01T11:49:04.250Z,1.7
2023-05-01T11:50:03.871Z,2.2
2023-05-01T11:51:08.112Z,2.2
2023-05-01T11:52:03.169Z,1.7
2023-05-01T11:53:08.527Z,0.9
2023-05-01T11:54:10.085Z,1.8
2023-05-01T11:55:03.988Z,1.6
2023-05-01T11:56:04.261Z,1.9
2023-05-01T11:57:03.897Z,1.9
2023-05-01T11:58:03.656Z,2.0
2023-05-01T11:59:13.225Z,1.8
2023-05-01T12:00:03.586Z,1.5
2023-05-01T12:01:03.260Z,1.6
2023-05-01T12:02:03.898Z,1.8
2023-05-01T12:03:04.880Z,2.2
2023-05-01T12:04:03.882Z,1.7
2023-05-01T12:05:15.377Z,1.9
2023-05-01T12:06:03.355Z,1.9
2023-05-01T12:07:03.845Z,1.3
2023-05-01T12:08:10.231Z,2.0
2023-05-01T12:09:03.539Z,2.1
2023-05-01T12:10:03.443Z,2.1
2023-05-01T12:11:03.244Z,2.3
2023-05-01T12:12:03.982Z,1.4
2023-05-01T12:13:03.876Z,1.4
2023-05-01T12:14:03.717Z,1.5
2023-05-01T12:15:03.381Z,1.7
2023-05-01T12:16:03.466Z,1.8
2023-05-01T12:17:04.960Z,2.0
2023-05-01T12:18:06.594Z,1.6
2023-05-01T12:19:03.589Z,1.9
2023-05-01T12:20:03.702Z,1.2
2023-05-01T12:21:03.391Z,3.5
2023-05-01T12:22:06.125Z,4.5
2023-05-01T12:23:03.788Z,5.5
2023-05-01T12:24:09.890Z,5.6
2023-05-01T12:25:03.780Z,5.8
2023-05-01T12:26:07.792Z,6.5
2023-05-01T12:27:03.697Z,6.1
2023-05-01T12:28:07.399Z,6.0
2023-05-01T12:29:04.559Z,5.8
2023-05-01T12:30:03.294Z,5.6
2023-05-01T12:31:05.599Z,6.2
2023-05-01T12:32:03.847Z,6.1
2023-05-01T12:33:14.230Z,6.1
2023-05-01T12:34:04.344Z,6.9
2023-05-01T12:35:13.351Z,6.8
2023-05-01T12:36:09.486Z,7.0
2023-05-01T12:37:05.290Z,8.1
2023-05-01T12:38:08.322Z,7.4
2023-05-01T12:39:06.635Z,7.1
2023-05-01T12:40:03.262Z,6.9
2023-05-01T12:41:04.112Z,6.8
2023-05-01T12:42:08.484Z,5.8
2023-05-01T12:43:03.576Z,4.3
2023-05-01T12:44:16.256Z,4.3
2023-05-01T12:45:03.397Z,3.2
2023-05-01T12:46:04.330Z,4.4
2023-05-01T12:47:04.461Z,4.4
2023-05-01T12:48:08.298Z,3.8
2023-05-01T12:49:03.911Z,4.0
2023-05-01T12:50:03.372Z,3.8
2023-05-01T12:51:03.797Z,3.6
2023-05-01T12:52:04.493Z,6.1
2023-05-01T12:53:03.386Z,6.4
2023-05-01T12:54:03.379Z,6.1
2023-05-01T12:55:04.358Z,5.6
2023-05-01T12:56:03.859Z,5.4
2023-05-01T12:57:11.231Z,3.7
2023-05-01T12:58:04.470Z,4.4
2023-05-01T12:59:03.176Z,4.6
2023-05-01T13:00:03.785Z,4.2
2023-05-01T13:01:04.015Z,4.8
2023-05-01T13:02:04.423Z,4.6
2023-05-01T13:03:03.967Z,4.0
2023-05-01T13:04:03.345Z,3.7
2023-05-01T13:05:10.034Z,3.7
2023-05-01T13:06:03.421Z,4.2
2023-05-01T13:07:07.933Z,4.5
2023-05-01T13:08:03.849Z,5.2
2023-05-01T13:09:07.078Z,4.1
2023-05-01T13:10:03.930Z,4.1
2023-05-01T13:11:12.942Z,3.4
2023-05-01T13:12:03.453Z,5.0
2023-05-01T13:13:03.732Z,4.8
2023-05-01T13:14:07.195Z,4.2
2023-05-01T13:15:03.776Z,4.3
2023-05-01T13:16:07.194Z,4.2
2023-05-01T13:17:03.054Z,4.7
2023-05-01T13:18:04.160Z,3.8
2023-05-01T13:19:03.497Z,3.8
2023-05-01T13:20:03.977Z,3.5
2023-05-01T13:21:06.345Z,4.3
2023-05-01T13:22:04.264Z,4.0
2023-05-01T13:23:08.065Z,3.8
2023-05-01T13:24:03.214Z,3.8
2023-05-01T13:25:04.688Z,3.8
2023-05-01T13:26:04.769Z,3.5
2023-05-01T13:27:05.210Z,4.1
2023-05-01T13:28:03.444Z,4.0
2023-05-01T13:29:03.239Z,4.1
2023-05-01T13:30:03.994Z,4.0
2023-05-01T13:31:08.445Z,3.6
2023-05-01T13:32:03.608Z,4.3
2023-05-01T13:33:03.331Z,4.4
2023-05-01T13:34:03.260Z,4.2
2023-05-01T13:35:03.360Z,4.3
2023-05-01T13:36:14.276Z,3.2
2023-05-01T13:37:03.796Z,3.6
2023-05-01T13:38:06.449Z,4.2
2023-05-01T13:39:03.388Z,4.1
2023-05-01T13:40:03.412Z,4.6
2023-05-01T13:41:03.130Z,4.2
2023-05-01T13:42:04.692Z,4.3
2023-05-01T13:43:03.441Z,4.1
2023-05-01T13:44:05.641Z,3.6
2023-05-01T13:45:03.397Z,3.9
2023-05-01T13:46:02.971Z,3.9